Terminal Aerodrome Forecast
Issued by NWS

Home | Current Version | Previous Version | Text Only | Print | Product List | Glossary On
Versions: 1 2 3 4 5 6 7 8 9 10 11 12 13 14 15 16
753
FTAK31 PAJN 142338
TAFAJN
TAF
PAJN 142338Z 1500/1524 25004KT P6SM SCT025 OVC080
     FM150300 09004KT P6SM SCT015 BKN025 OVC035
     FM150700 09005KT 3SM -SHRA BR SCT015 OVC025
     FM151400 09004KT 6SM -SHRA BR SCT015 OVC035
     FM152000 09004KT P6SM VCSH SCT020 OVC050=

USA.gov is the U.S. government's official web portal to all federal, state and local government web resources and services.